KMVL

Details ICAO KMVL (MVL)
Name MORRISVILLE STOWE STATE
Region United States
Timezone America/New_York (UTC-4.0)
Plans Departing 8
Arriving 8
Stats Elevation 732 ft / 223 m (AMSL)
Location 44.534605° -72.614009°
Runways 1
Magnetic Variation 14.552° W
Sunrise 2018-05-20 09:19:06 UTC / 2018-05-20 05:19:06 Local
Sunset 2018-05-21 00:17:44 UTC / 2018-05-20 20:17:44 Local
Advertisement - Login to hide

Runways

ID Width Length Bearing (true) Bearing (mag) Surface Threshold Offset Overrun Length
01 75 ft / 23 m 3,704 ft / 1,129 m 358.31° 12.86° Asphalt 0 ft / 0 m 0 ft / 0 m
19 75 ft / 23 m 3,704 ft / 1,129 m 178.31° 192.86° Asphalt 0 ft / 0 m 0 ft / 0 m

Map

Weather


0- 5 10 15 20 25 30 35+ Temperature / ° C

Clouds and Precipitation
Forecast for 2018-05-21 00:00 UTC. Updated 15 minutes ago

Ground ~20,000 ft ~40,000 ft Winds

METAR

KMVL 202254Z AUTO 28004KT 10SM FEW049 16/10 A3000 RMK AO2 SLP159 T01560100

TAF

Not found

Frequencies

Recorded 135.62 MHz ASOS
Unicom 122.80 MHz CTAF/UNICOM
Warning: Do not use this data for real-world aviation or navigation. No guarantee of current accuracy is given.